sensor_id;sensor_type;location;lat;lon;timestamp;pressure;altitude;pressure_sealevel;temperature;humidity
35129;BME280;21301;43.626;10.580;2024-01-30T00:02:09;103426.91;;;3.37;66.87
35129;BME280;21301;43.626;10.580;2024-01-30T00:04:35;103426.03;;;3.40;66.90
35129;BME280;21301;43.626;10.580;2024-01-30T00:07:00;103424.31;;;3.34;67.08
35129;BME280;21301;43.626;10.580;2024-01-30T00:09:27;103420.84;;;3.35;67.52
35129;BME280;21301;43.626;10.580;2024-01-30T00:11:54;103417.41;;;3.16;67.54
35129;BME280;21301;43.626;10.580;2024-01-30T00:14:19;103415.66;;;3.12;67.36
35129;BME280;21301;43.626;10.580;2024-01-30T00:16:45;103418.28;;;3.20;67.88
35129;BME280;21301;43.626;10.580;2024-01-30T00:19:11;103418.28;;;3.18;67.48
35129;BME280;21301;43.626;10.580;2024-01-30T00:21:37;103422.59;;;3.19;67.47
35129;BME280;21301;43.626;10.580;2024-01-30T00:24:02;103420.84;;;3.29;67.59
35129;BME280;21301;43.626;10.580;2024-01-30T00:26:28;103422.50;;;3.49;67.46
35129;BME280;21301;43.626;10.580;2024-01-30T00:28:54;103433.78;;;3.55;67.75
35129;BME280;21301;43.626;10.580;2024-01-30T00:31:19;103416.41;;;3.62;67.89
35129;BME280;21301;43.626;10.580;2024-01-30T00:33:45;103419.09;;;3.47;67.67
35129;BME280;21301;43.626;10.580;2024-01-30T00:36:10;103417.34;;;3.38;67.63
35129;BME280;21301;43.626;10.580;2024-01-30T00:38:37;103426.03;;;3.45;67.61
35129;BME280;21301;43.626;10.580;2024-01-30T00:41:02;103416.41;;;3.60;67.84
35129;BME280;21301;43.626;10.580;2024-01-30T00:43:28;103414.72;;;3.56;68.08
35129;BME280;21301;43.626;10.580;2024-01-30T00:45:54;103418.19;;;3.48;67.75
35129;BME280;21301;43.626;10.580;2024-01-30T00:48:20;103419.03;;;3.53;67.75
35129;BME280;21301;43.626;10.580;2024-01-30T00:50:46;103421.69;;;3.45;67.83
35129;BME280;21301;43.626;10.580;2024-01-30T00:53:11;103417.38;;;3.29;68.13
35129;BME280;21301;43.626;10.580;2024-01-30T00:55:37;103417.41;;;3.12;68.26
35129;BME280;21301;43.626;10.580;2024-01-30T00:58:02;103425.22;;;3.18;67.89
35129;BME280;21301;43.626;10.580;2024-01-30T01:00:28;103428.69;;;3.20;67.97
35129;BME280;21301;43.626;10.580;2024-01-30T01:03:00;103422.63;;;3.06;68.25
35129;BME280;21301;43.626;10.580;2024-01-30T01:05:26;103426.94;;;3.07;68.12
35129;BME280;21301;43.626;10.580;2024-01-30T01:07:52;103422.63;;;2.99;68.31
35129;BME280;21301;43.626;10.580;2024-01-30T01:10:18;103418.28;;;3.05;68.13
35129;BME280;21301;43.626;10.580;2024-01-30T01:12:44;103418.31;;;2.89;68.44
35129;BME280;21301;43.626;10.580;2024-01-30T01:15:10;103424.34;;;2.71;68.22
35129;BME280;21301;43.626;10.580;2024-01-30T01:17:39;103425.25;;;2.72;68.35
35129;BME280;21301;43.626;10.580;2024-01-30T01:20:06;103413.09;;;2.66;68.76
35129;BME280;21301;43.626;10.580;2024-01-30T01:22:32;103417.44;;;2.67;68.67
35129;BME280;21301;43.626;10.580;2024-01-30T01:24:59;103422.63;;;2.64;68.83
35129;BME280;21301;43.626;10.580;2024-01-30T01:27:25;103420.03;;;2.58;69.03
35129;BME280;21301;43.626;10.580;2024-01-30T01:29:51;103419.16;;;2.47;69.79
35129;BME280;21301;43.626;10.580;2024-01-30T01:32:18;103422.63;;;2.44;68.96
35129;BME280;21301;43.626;10.580;2024-01-30T01:34:44;103415.72;;;2.51;69.15
35129;BME280;21301;43.626;10.580;2024-01-30T01:37:10;103417.44;;;2.49;68.98
35129;BME280;21301;43.626;10.580;2024-01-30T01:39:35;103421.75;;;2.42;69.00
35129;BME280;21301;43.626;10.580;2024-01-30T01:42:01;103412.22;;;2.33;69.65
35129;BME280;21301;43.626;10.580;2024-01-30T01:44:27;103409.59;;;2.27;69.26
35129;BME280;21301;43.626;10.580;2024-01-30T01:46:53;103408.72;;;2.25;69.03
35129;BME280;21301;43.626;10.580;2024-01-30T01:49:19;103401.78;;;2.18;69.69
35129;BME280;21301;43.626;10.580;2024-01-30T01:51:47;103407.81;;;2.02;69.92
35129;BME280;21301;43.626;10.580;2024-01-30T01:54:14;103409.53;;;2.01;69.89
35129;BME280;21301;43.626;10.580;2024-01-30T01:56:39;103410.44;;;2.11;70.15
35129;BME280;21301;43.626;10.580;2024-01-30T01:59:07;103404.34;;;2.01;70.14
35129;BME280;21301;43.626;10.580;2024-01-30T02:01:34;103410.41;;;1.99;70.04
35129;BME280;21301;43.626;10.580;2024-01-30T02:04:01;103413.00;;;2.03;70.44
35129;BME280;21301;43.626;10.580;2024-01-30T02:06:27;103416.50;;;2.10;70.47
35129;BME280;21301;43.626;10.580;2024-01-30T02:08:55;103413.91;;;2.18;70.24
35129;BME280;21301;43.626;10.580;2024-01-30T02:11:22;103416.53;;;2.24;70.27
35129;BME280;21301;43.626;10.580;2024-01-30T02:13:48;103407.00;;;2.30;70.18
35129;BME280;21301;43.626;10.580;2024-01-30T02:16:14;103407.00;;;2.30;70.17
35129;BME280;21301;43.626;10.580;2024-01-30T02:18:39;103404.38;;;2.18;70.55
35129;BME280;21301;43.626;10.580;2024-01-30T02:21:12;103407.84;;;2.09;70.34
35129;BME280;21301;43.626;10.580;2024-01-30T02:23:38;103411.28;;;2.04;70.83
35129;BME280;21301;43.626;10.580;2024-01-30T02:26:04;103406.97;;;2.13;70.72
35129;BME280;21301;43.626;10.580;2024-01-30T02:28:30;103403.50;;;2.04;70.92
35129;BME280;21301;43.626;10.580;2024-01-30T02:30:55;103398.28;;;2.04;70.93
35129;BME280;21301;43.626;10.580;2024-01-30T02:33:23;103405.25;;;2.05;70.91
35129;BME280;21301;43.626;10.580;2024-01-30T02:35:48;103400.06;;;2.09;70.96
35129;BME280;21301;43.626;10.580;2024-01-30T02:38:15;103394.00;;;2.12;70.84
35129;BME280;21301;43.626;10.580;2024-01-30T02:40:41;103411.28;;;2.08;70.65
35129;BME280;21301;43.626;10.580;2024-01-30T02:43:06;103406.09;;;2.11;70.91
35129;BME280;21301;43.626;10.580;2024-01-30T02:45:32;103403.47;;;1.99;70.60
35129;BME280;21301;43.626;10.580;2024-01-30T02:47:58;103394.78;;;1.85;70.79
35129;BME280;21301;43.626;10.580;2024-01-30T02:50:23;103397.41;;;1.91;71.01
35129;BME280;21301;43.626;10.580;2024-01-30T02:52:50;103395.69;;;1.93;70.66
35129;BME280;21301;43.626;10.580;2024-01-30T02:55:16;103396.59;;;2.07;71.01
35129;BME280;21301;43.626;10.580;2024-01-30T02:57:44;103392.25;;;2.03;70.81
35129;BME280;21301;43.626;10.580;2024-01-30T03:00:10;103391.34;;;1.90;71.17
35129;BME280;21301;43.626;10.580;2024-01-30T03:02:36;103397.38;;;1.76;71.38
35129;BME280;21301;43.626;10.580;2024-01-30T03:05:02;103400.81;;;1.76;71.36
35129;BME280;21301;43.626;10.580;2024-01-30T03:07:29;103388.72;;;1.80;71.74
35129;BME280;21301;43.626;10.580;2024-01-30T03:09:55;103391.31;;;1.81;71.30
35129;BME280;21301;43.626;10.580;2024-01-30T03:12:21;103392.19;;;1.82;71.89
35129;BME280;21301;43.626;10.580;2024-01-30T03:14:47;103391.34;;;1.86;71.70
35129;BME280;21301;43.626;10.580;2024-01-30T03:17:12;103387.00;;;1.82;71.79
35129;BME280;21301;43.626;10.580;2024-01-30T03:19:38;103385.28;;;1.81;72.08
35129;BME280;21301;43.626;10.580;2024-01-30T03:22:03;103392.19;;;1.86;71.85
35129;BME280;21301;43.626;10.580;2024-01-30T03:24:29;103381.81;;;1.79;71.95
35129;BME280;21301;43.626;10.580;2024-01-30T03:26:54;103382.66;;;1.82;71.93
35129;BME280;21301;43.626;10.580;2024-01-30T03:29:20;103380.94;;;1.81;71.69
35129;BME280;21301;43.626;10.580;2024-01-30T03:31:46;103384.41;;;1.76;72.07
35129;BME280;21301;43.626;10.580;2024-01-30T03:34:11;103380.84;;;1.60;72.07
35129;BME280;21301;43.626;10.580;2024-01-30T03:36:37;103377.38;;;1.50;71.97
35129;BME280;21301;43.626;10.580;2024-01-30T03:39:03;103387.69;;;1.44;72.19
35129;BME280;21301;43.626;10.580;2024-01-30T03:41:28;103383.28;;;1.23;72.23
35129;BME280;21301;43.626;10.580;2024-01-30T03:43:54;103385.00;;;1.27;72.02
35129;BME280;21301;43.626;10.580;2024-01-30T03:46:19;103384.97;;;1.22;72.45
35129;BME280;21301;43.626;10.580;2024-01-30T03:48:45;103382.38;;;1.16;72.34
35129;BME280;21301;43.626;10.580;2024-01-30T03:51:11;103381.50;;;1.17;72.38
35129;BME280;21301;43.626;10.580;2024-01-30T03:53:44;103387.53;;;1.12;72.46
35129;BME280;21301;43.626;10.580;2024-01-30T03:56:11;103379.66;;;1.01;72.73
35129;BME280;21301;43.626;10.580;2024-01-30T03:58:38;103389.16;;;0.97;72.88
35129;BME280;21301;43.626;10.580;2024-01-30T04:01:03;103386.41;;;0.76;72.65
35129;BME280;21301;43.626;10.580;2024-01-30T04:03:29;103387.22;;;0.72;73.68
35129;BME280;21301;43.626;10.580;2024-01-30T04:05:55;103395.88;;;0.71;73.36
35129;BME280;21301;43.626;10.580;2024-01-30T04:08:20;103388.06;;;0.66;73.45
35129;BME280;21301;43.626;10.580;2024-01-30T04:10:46;103386.38;;;0.71;73.79
35129;BME280;21301;43.626;10.580;2024-01-30T04:13:12;103391.53;;;0.71;73.33
35129;BME280;21301;43.626;10.580;2024-01-30T04:15:38;103385.53;;;0.72;74.06
35129;BME280;21301;43.626;10.580;2024-01-30T04:18:04;103394.16;;;0.73;74.30
35129;BME280;21301;43.626;10.580;2024-01-30T04:20:30;103388.94;;;0.70;74.12
35129;BME280;21301;43.626;10.580;2024-01-30T04:22:55;103388.09;;;0.71;74.65
35129;BME280;21301;43.626;10.580;2024-01-30T04:25:21;103390.75;;;0.81;74.27
35129;BME280;21301;43.626;10.580;2024-01-30T04:27:47;103389.91;;;0.81;74.77
35129;BME280;21301;43.626;10.580;2024-01-30T04:30:13;103390.84;;;0.92;74.61
35129;BME280;21301;43.626;10.580;2024-01-30T04:32:39;103390.03;;;1.01;74.84
35129;BME280;21301;43.626;10.580;2024-01-30T04:35:05;103389.22;;;1.06;74.91
35129;BME280;21301;43.626;10.580;2024-01-30T04:37:31;103389.28;;;1.16;74.74
35129;BME280;21301;43.626;10.580;2024-01-30T04:39:56;103388.41;;;1.20;74.60
35129;BME280;21301;43.626;10.580;2024-01-30T04:42:22;103394.47;;;1.19;74.82
35129;BME280;21301;43.626;10.580;2024-01-30T04:44:47;103386.69;;;1.16;75.02
35129;BME280;21301;43.626;10.580;2024-01-30T04:47:13;103390.13;;;1.12;74.93
35129;BME280;21301;43.626;10.580;2024-01-30T04:49:39;103394.41;;;1.06;75.06
35129;BME280;21301;43.626;10.580;2024-01-30T04:52:06;103391.78;;;0.99;75.16
35129;BME280;21301;43.626;10.580;2024-01-30T04:54:33;103392.63;;;1.02;75.04
35129;BME280;21301;43.626;10.580;2024-01-30T04:56:58;103388.31;;;1.03;74.90
35129;BME280;21301;43.626;10.580;2024-01-30T04:59:24;103395.25;;;1.07;75.26
35129;BME280;21301;43.626;10.580;2024-01-30T05:01:50;103390.97;;;1.15;75.30
35129;BME280;21301;43.626;10.580;2024-01-30T05:04:15;103395.41;;;1.30;75.18
35129;BME280;21301;43.626;10.580;2024-01-30T05:06:41;103386.81;;;1.37;75.27
35129;BME280;21301;43.626;10.580;2024-01-30T05:09:06;103393.72;;;1.35;75.22
35129;BME280;21301;43.626;10.580;2024-01-30T05:11:39;103391.06;;;1.29;75.49
35129;BME280;21301;43.626;10.580;2024-01-30T05:14:05;103398.00;;;1.32;75.33
35129;BME280;21301;43.626;10.580;2024-01-30T05:16:31;103395.38;;;1.25;75.15
35129;BME280;21301;43.626;10.580;2024-01-30T05:18:58;103395.31;;;1.16;75.26
35129;BME280;21301;43.626;10.580;2024-01-30T05:21:24;103395.25;;;1.07;75.39
35129;BME280;21301;43.626;10.580;2024-01-30T05:23:50;103397.84;;;1.07;75.33
35129;BME280;21301;43.626;10.580;2024-01-30T05:26:17;103397.75;;;0.90;75.61
35129;BME280;21301;43.626;10.580;2024-01-30T05:28:43;103394.25;;;0.88;76.06
35129;BME280;21301;43.626;10.580;2024-01-30T05:31:11;103400.34;;;0.92;75.63
35129;BME280;21301;43.626;10.580;2024-01-30T05:33:37;103399.56;;;1.02;75.60
35129;BME280;21301;43.626;10.580;2024-01-30T05:36:04;103402.13;;;0.99;74.96
35129;BME280;21301;43.626;10.580;2024-01-30T05:38:29;103406.38;;;0.91;74.81
35129;BME280;21301;43.626;10.580;2024-01-30T05:40:58;103408.13;;;0.93;74.60
35129;BME280;21301;43.626;10.580;2024-01-30T05:43:26;103412.47;;;0.94;74.43
35129;BME280;21301;43.626;10.580;2024-01-30T05:45:52;103401.13;;;0.83;74.21
35129;BME280;21301;43.626;10.580;2024-01-30T05:48:18;103405.50;;;0.90;74.08
35129;BME280;21301;43.626;10.580;2024-01-30T05:50:46;103401.97;;;0.80;74.79
35129;BME280;21301;43.626;10.580;2024-01-30T05:53:13;103404.44;;;0.67;75.14
35129;BME280;21301;43.626;10.580;2024-01-30T05:55:39;103410.50;;;0.67;75.28
35129;BME280;21301;43.626;10.580;2024-01-30T05:58:04;103402.75;;;0.69;75.23
35129;BME280;21301;43.626;10.580;2024-01-30T06:00:30;103411.38;;;0.68;75.71
35129;BME280;21301;43.626;10.580;2024-01-30T06:02:58;103406.25;;;0.72;76.00
35129;BME280;21301;43.626;10.580;2024-01-30T06:05:24;103413.03;;;0.59;76.15
35129;BME280;21301;43.626;10.580;2024-01-30T06:07:51;103411.31;;;0.58;76.15
35129;BME280;21301;43.626;10.580;2024-01-30T06:10:16;103412.19;;;0.62;76.55
35129;BME280;21301;43.626;10.580;2024-01-30T06:12:42;103399.22;;;0.62;76.05
35129;BME280;21301;43.626;10.580;2024-01-30T06:15:08;103412.25;;;0.68;76.34
35129;BME280;21301;43.626;10.580;2024-01-30T06:17:33;103404.44;;;0.63;76.61
35129;BME280;21301;43.626;10.580;2024-01-30T06:19:59;103411.44;;;0.72;76.55
35129;BME280;21301;43.626;10.580;2024-01-30T06:22:24;103408.84;;;0.75;76.53
35129;BME280;21301;43.626;10.580;2024-01-30T06:24:50;103405.41;;;0.76;76.31
35129;BME280;21301;43.626;10.580;2024-01-30T06:27:16;103413.94;;;0.63;76.24
35129;BME280;21301;43.626;10.580;2024-01-30T06:29:43;103414.81;;;0.67;76.07
35129;BME280;21301;43.626;10.580;2024-01-30T06:32:08;103409.66;;;0.70;75.95
35129;BME280;21301;43.626;10.580;2024-01-30T06:34:34;103414.00;;;0.74;76.41
35129;BME280;21301;43.626;10.580;2024-01-30T06:36:59;103407.19;;;0.87;76.29
35129;BME280;21301;43.626;10.580;2024-01-30T06:39:26;103408.94;;;0.86;75.90
35129;BME280;21301;43.626;10.580;2024-01-30T06:41:52;103414.06;;;0.78;75.97
35129;BME280;21301;43.626;10.580;2024-01-30T06:44:18;103414.13;;;0.88;76.17
35129;BME280;21301;43.626;10.580;2024-01-30T06:46:43;103414.97;;;0.85;75.98
35129;BME280;21301;43.626;10.580;2024-01-30T06:49:09;103410.66;;;0.85;76.04
35129;BME280;21301;43.626;10.580;2024-01-30T06:51:35;103419.22;;;0.78;76.02
35129;BME280;21301;43.626;10.580;2024-01-30T06:54:00;103416.72;;;0.88;75.96
35129;BME280;21301;43.626;10.580;2024-01-30T06:56:26;103421.84;;;0.81;76.07
35129;BME280;21301;43.626;10.580;2024-01-30T06:58:51;103414.06;;;0.81;76.35
35129;BME280;21301;43.626;10.580;2024-01-30T07:01:17;103424.41;;;0.78;75.73
35129;BME280;21301;43.626;10.580;2024-01-30T07:03:43;103426.13;;;0.76;76.14
35129;BME280;21301;43.626;10.580;2024-01-30T07:06:12;103435.69;;;0.85;75.90
35129;BME280;21301;43.626;10.580;2024-01-30T07:08:37;103435.69;;;0.82;75.76
35129;BME280;21301;43.626;10.580;2024-01-30T07:11:06;103438.31;;;0.91;75.87
35129;BME280;21301;43.626;10.580;2024-01-30T07:13:32;103435.22;;;1.43;75.03
35129;BME280;21301;43.626;10.580;2024-01-30T07:15:58;103432.16;;;2.93;73.72
35129;BME280;21301;43.626;10.580;2024-01-30T07:18:24;103435.34;;;3.98;71.37
35129;BME280;21301;43.626;10.580;2024-01-30T07:20:50;103425.72;;;5.25;69.59
35129;BME280;21301;43.626;10.580;2024-01-30T07:23:16;103430.16;;;5.92;66.78
35129;BME280;21301;43.626;10.580;2024-01-30T07:25:46;103429.59;;;6.35;64.28
35129;BME280;21301;43.626;10.580;2024-01-30T07:28:16;103438.28;;;6.90;62.60
35129;BME280;21301;43.626;10.580;2024-01-30T07:30:43;103444.09;;;7.54;61.08
35129;BME280;21301;43.626;10.580;2024-01-30T07:33:09;103447.97;;;8.20;59.72
35129;BME280;21301;43.626;10.580;2024-01-30T07:35:36;103444.34;;;8.24;58.51
35129;BME280;21301;43.626;10.580;2024-01-30T07:38:02;103440.63;;;8.73;57.53
35129;BME280;21301;43.626;10.580;2024-01-30T07:40:28;103442.78;;;9.26;56.40
35129;BME280;21301;43.626;10.580;2024-01-30T07:42:54;103448.22;;;9.50;55.59
35129;BME280;21301;43.626;10.580;2024-01-30T07:45:20;103442.13;;;10.38;53.24
35129;BME280;21301;43.626;10.580;2024-01-30T07:47:50;103443.31;;;10.56;53.60
35129;BME280;21301;43.626;10.580;2024-01-30T07:50:16;103439.34;;;10.96;52.24
35129;BME280;21301;43.626;10.580;2024-01-30T07:52:42;103447.28;;;13.02;55.01
35129;BME280;21301;43.626;10.580;2024-01-30T07:55:09;103438.75;;;15.37;55.34
35129;BME280;21301;43.626;10.580;2024-01-30T07:57:35;103429.50;;;16.41;52.01
35129;BME280;21301;43.626;10.580;2024-01-30T08:00:01;103439.22;;;16.56;50.46
35129;BME280;21301;43.626;10.580;2024-01-30T08:02:32;103440.69;;;14.83;48.87
35129;BME280;21301;43.626;10.580;2024-01-30T08:04:58;103454.63;;;13.57;49.39
35129;BME280;21301;43.626;10.580;2024-01-30T08:07:23;103454.63;;;12.75;48.86
35129;BME280;21301;43.626;10.580;2024-01-30T08:09:49;103450.94;;;13.40;47.87
35129;BME280;21301;43.626;10.580;2024-01-30T08:12:14;103448.56;;;14.48;46.07
35129;BME280;21301;43.626;10.580;2024-01-30T08:14:40;103442.28;;;15.20;44.75
35129;BME280;21301;43.626;10.580;2024-01-30T08:17:06;103445.75;;;14.51;43.74
35129;BME280;21301;43.626;10.580;2024-01-30T08:19:33;103450.56;;;13.29;44.55
35129;BME280;21301;43.626;10.580;2024-01-30T08:21:59;103449.44;;;11.82;46.25
35129;BME280;21301;43.626;10.580;2024-01-30T08:24:25;103456.50;;;11.08;47.51
35129;BME280;21301;43.626;10.580;2024-01-30T08:26:50;103452.41;;;10.46;48.70
35129;BME280;21301;43.626;10.580;2024-01-30T08:29:16;103458.81;;;9.78;49.76
35129;BME280;21301;43.626;10.580;2024-01-30T08:31:42;103457.66;;;9.57;50.54
35129;BME280;21301;43.626;10.580;2024-01-30T08:34:07;103464.97;;;9.13;51.17
35129;BME280;21301;43.626;10.580;2024-01-30T08:36:34;103469.09;;;8.89;51.36
35129;BME280;21301;43.626;10.580;2024-01-30T08:39:00;103464.09;;;8.42;52.21
35129;BME280;21301;43.626;10.580;2024-01-30T08:41:25;103460.34;;;8.54;52.37
35129;BME280;21301;43.626;10.580;2024-01-30T08:43:52;103466.06;;;8.70;51.78
35129;BME280;21301;43.626;10.580;2024-01-30T08:46:18;103470.31;;;8.76;51.23
35129;BME280;21301;43.626;10.580;2024-01-30T08:48:44;103471.59;;;9.28;50.83
35129;BME280;21301;43.626;10.580;2024-01-30T08:51:10;103464.66;;;9.25;50.11
35129;BME280;21301;43.626;10.580;2024-01-30T08:53:36;103465.00;;;9.11;50.57
35129;BME280;21301;43.626;10.580;2024-01-30T08:56:03;103459.00;;;9.41;49.91
35129;BME280;21301;43.626;10.580;2024-01-30T08:58:29;103469.28;;;8.83;50.29
35129;BME280;21301;43.626;10.580;2024-01-30T09:00:54;103469.16;;;9.22;51.00
35129;BME280;21301;43.626;10.580;2024-01-30T09:03:20;103461.97;;;9.59;50.94
35129;BME280;21301;43.626;10.580;2024-01-30T09:05:46;103464.56;;;9.28;50.88
35129;BME280;21301;43.626;10.580;2024-01-30T09:08:11;103471.59;;;9.28;51.29
35129;BME280;21301;43.626;10.580;2024-01-30T09:10:37;103471.47;;;9.00;52.01
35129;BME280;21301;43.626;10.580;2024-01-30T09:13:03;103477.56;;;9.00;51.35
35129;BME280;21301;43.626;10.580;2024-01-30T09:15:30;103475.59;;;9.08;51.06
35129;BME280;21301;43.626;10.580;2024-01-30T09:17:55;103469.81;;;9.28;50.62
35129;BME280;21301;43.626;10.580;2024-01-30T09:20:21;103467.88;;;9.68;50.09
35129;BME280;21301;43.626;10.580;2024-01-30T09:22:48;103469.41;;;10.36;49.34
35129;BME280;21301;43.626;10.580;2024-01-30T09:25:14;103465.81;;;10.65;48.18
35129;BME280;21301;43.626;10.580;2024-01-30T09:27:40;103467.91;;;10.82;48.66
35129;BME280;21301;43.626;10.580;2024-01-30T09:30:06;103466.81;;;10.34;49.01
35129;BME280;21301;43.626;10.580;2024-01-30T09:32:33;103468.88;;;10.79;48.77
35129;BME280;21301;43.626;10.580;2024-01-30T09:34:59;103463.66;;;11.29;48.17
35129;BME280;21301;43.626;10.580;2024-01-30T09:37:24;103465.19;;;11.35;47.92
35129;BME280;21301;43.626;10.580;2024-01-30T09:39:50;103465.75;;;11.20;47.53
35129;BME280;21301;43.626;10.580;2024-01-30T09:44:58;103473.81;;;10.90;47.35
35129;BME280;21301;43.626;10.580;2024-01-30T09:47:24;103473.69;;;10.93;47.59
35129;BME280;21301;43.626;10.580;2024-01-30T09:49:50;103471.25;;;10.87;47.54
35129;BME280;21301;43.626;10.580;2024-01-30T09:52:17;103472.16;;;11.13;46.99
35129;BME280;21301;43.626;10.580;2024-01-30T09:54:44;103475.06;;;10.78;47.42
35129;BME280;21301;43.626;10.580;2024-01-30T09:57:11;103467.94;;;11.32;46.92
35129;BME280;21301;43.626;10.580;2024-01-30T09:59:42;103467.06;;;11.33;47.03
35129;BME280;21301;43.626;10.580;2024-01-30T10:02:10;103477.91;;;11.24;46.67
35129;BME280;21301;43.626;10.580;2024-01-30T10:04:35;103471.66;;;11.51;47.08
35129;BME280;21301;43.626;10.580;2024-01-30T10:07:04;103471.19;;;12.12;45.77
35129;BME280;21301;43.626;10.580;2024-01-30T10:09:34;103460.16;;;12.25;44.64
35129;BME280;21301;43.626;10.580;2024-01-30T10:12:02;103464.63;;;12.45;44.77
35129;BME280;21301;43.626;10.580;2024-01-30T10:14:29;103463.47;;;12.52;44.11
35129;BME280;21301;43.626;10.580;2024-01-30T10:16:55;103458.00;;;12.56;44.53
35129;BME280;21301;43.626;10.580;2024-01-30T10:19:21;103450.72;;;12.84;43.88
35129;BME280;21301;43.626;10.580;2024-01-30T10:21:46;103455.66;;;12.91;44.22
35129;BME280;21301;43.626;10.580;2024-01-30T10:24:12;103447.00;;;13.08;43.85
35129;BME280;21301;43.626;10.580;2024-01-30T10:26:43;103451.59;;;13.05;43.70
35129;BME280;21301;43.626;10.580;2024-01-30T10:29:08;103446.97;;;13.10;43.46
35129;BME280;21301;43.626;10.580;2024-01-30T10:31:34;103441.34;;;12.97;42.64
35129;BME280;21301;43.626;10.580;2024-01-30T10:34:00;103447.41;;;12.78;42.96
35129;BME280;21301;43.626;10.580;2024-01-30T10:36:28;103444.44;;;12.22;43.55
35129;BME280;21301;43.626;10.580;2024-01-30T10:38:59;103439.22;;;12.20;43.72
35129;BME280;21301;43.626;10.580;2024-01-30T10:41:31;103436.72;;;12.17;42.35
35129;BME280;21301;43.626;10.580;2024-01-30T10:44:08;103438.66;;;12.12;42.90
35129;BME280;21301;43.626;10.580;2024-01-30T10:46:35;103435.97;;;12.35;43.65
35129;BME280;21301;43.626;10.580;2024-01-30T10:49:04;103429.75;;;12.58;42.62
35129;BME280;21301;43.626;10.580;2024-01-30T10:51:31;103420.78;;;12.63;42.99
35129;BME280;21301;43.626;10.580;2024-01-30T10:53:57;103420.69;;;12.44;42.74
35129;BME280;21301;43.626;10.580;2024-01-30T10:56:24;103414.25;;;12.29;41.80
35129;BME280;21301;43.626;10.580;2024-01-30T10:58:50;103409.81;;;12.07;42.43
35129;BME280;21301;43.626;10.580;2024-01-30T11:01:19;103403.94;;;12.23;41.81
35129;BME280;21301;43.626;10.580;2024-01-30T11:03:51;103396.19;;;12.40;42.61
35129;BME280;21301;43.626;10.580;2024-01-30T11:06:17;103397.34;;;12.55;42.50
35129;BME280;21301;43.626;10.580;2024-01-30T11:08:45;103393.28;;;12.68;42.33
35129;BME280;21301;43.626;10.580;2024-01-30T11:11:10;103394.47;;;12.61;42.04
35129;BME280;21301;43.626;10.580;2024-01-30T11:13:36;103392.25;;;12.72;41.62
35129;BME280;21301;43.626;10.580;2024-01-30T11:16:03;103392.22;;;12.93;41.58
35129;BME280;21301;43.626;10.580;2024-01-30T11:18:32;103379.06;;;13.12;41.26
35129;BME280;21301;43.626;10.580;2024-01-30T11:20:59;103385.28;;;13.11;40.47
35129;BME280;21301;43.626;10.580;2024-01-30T11:23:30;103384.84;;;13.20;39.87
35129;BME280;21301;43.626;10.580;2024-01-30T11:25:57;103378.13;;;13.33;39.76
35129;BME280;21301;43.626;10.580;2024-01-30T11:28:23;103378.84;;;13.37;39.58
35129;BME280;21301;43.626;10.580;2024-01-30T11:30:48;103377.78;;;13.41;39.26
35129;BME280;21301;43.626;10.580;2024-01-30T11:33:30;103368.91;;;13.03;38.47
35129;BME280;21301;43.626;10.580;2024-01-30T11:35:57;103367.72;;;13.10;39.81
35129;BME280;21301;43.626;10.580;2024-01-30T11:38:26;103378.34;;;12.47;40.25
35129;BME280;21301;43.626;10.580;2024-01-30T11:40:53;103369.31;;;12.93;39.75
35129;BME280;21301;43.626;10.580;2024-01-30T11:43:20;103366.09;;;12.66;39.74
35129;BME280;21301;43.626;10.580;2024-01-30T11:45:46;103365.66;;;13.16;39.92
35129;BME280;21301;43.626;10.580;2024-01-30T11:48:13;103355.59;;;13.45;38.65
35129;BME280;21301;43.626;10.580;2024-01-30T11:50:39;103353.38;;;13.74;38.62
35129;BME280;21301;43.626;10.580;2024-01-30T11:53:08;103348.50;;;13.46;38.81
35129;BME280;21301;43.626;10.580;2024-01-30T11:55:35;103349.63;;;13.78;38.61
35129;BME280;21301;43.626;10.580;2024-01-30T11:58:04;103339.41;;;13.89;38.65
35129;BME280;21301;43.626;10.580;2024-01-30T12:00:30;103337.59;;;13.90;38.79
35129;BME280;21301;43.626;10.580;2024-01-30T12:02:58;103337.19;;;13.80;38.68
35129;BME280;21301;43.626;10.580;2024-01-30T12:05:26;103340.84;;;13.39;38.60
35129;BME280;21301;43.626;10.580;2024-01-30T12:07:52;103339.72;;;13.06;39.33
35129;BME280;21301;43.626;10.580;2024-01-30T12:10:18;103327.53;;;13.22;39.09
35129;BME280;21301;43.626;10.580;2024-01-30T12:12:49;103334.16;;;13.12;39.11
35129;BME280;21301;43.626;10.580;2024-01-30T12:15:15;103335.16;;;12.89;40.19
35129;BME280;21301;43.626;10.580;2024-01-30T12:17:41;103328.03;;;12.91;40.08
35129;BME280;21301;43.626;10.580;2024-01-30T12:25:14;103321.09;;;12.49;39.83
35129;BME280;21301;43.626;10.580;2024-01-30T12:27:48;103319.28;;;12.49;40.66
35129;BME280;21301;43.626;10.580;2024-01-30T12:30:16;103316.72;;;12.68;40.97
35129;BME280;21301;43.626;10.580;2024-01-30T12:32:43;103303.94;;;13.57;39.48
35129;BME280;21301;43.626;10.580;2024-01-30T12:35:11;103302.72;;;14.35;39.11
35129;BME280;21301;43.626;10.580;2024-01-30T12:37:37;103295.50;;;14.89;38.36
35129;BME280;21301;43.626;10.580;2024-01-30T12:40:03;103299.84;;;15.24;38.12
35129;BME280;21301;43.626;10.580;2024-01-30T12:42:29;103288.38;;;15.55;37.51
35129;BME280;21301;43.626;10.580;2024-01-30T12:44:57;103287.19;;;15.76;37.24
35129;BME280;21301;43.626;10.580;2024-01-30T12:47:23;103289.53;;;15.83;36.81
35129;BME280;21301;43.626;10.580;2024-01-30T12:49:50;103285.19;;;15.96;36.71
35129;BME280;21301;43.626;10.580;2024-01-30T12:52:20;103278.56;;;16.19;36.86